createdAt,value
2017-11-05T00:00:25.561Z,5.17
2017-11-05T00:02:53.875Z,11.60
2017-11-05T00:05:22.935Z,4.20
2017-11-05T00:07:51.247Z,5.40
2017-11-05T00:10:19.543Z,3.00
2017-11-05T00:12:48.637Z,4.40
2017-11-05T00:15:17.710Z,7.63
2017-11-05T00:17:46.067Z,6.10
2017-11-05T00:20:14.358Z,5.10
2017-11-05T00:22:42.755Z,8.30
2017-11-05T00:25:11.116Z,10.10
2017-11-05T00:27:39.424Z,12.60
2017-11-05T00:30:07.744Z,11.60
2017-11-05T00:32:36.031Z,9.47
2017-11-05T00:35:04.327Z,9.43
2017-11-05T00:37:32.626Z,7.37
2017-11-05T00:40:00.957Z,11.10
2017-11-05T00:42:30.044Z,7.33
2017-11-05T00:44:59.148Z,4.93
2017-11-05T00:47:28.210Z,4.83
2017-11-05T00:49:56.516Z,4.53
2017-11-05T00:52:24.871Z,4.77
2017-11-05T00:54:53.344Z,4.67
2017-11-05T00:57:21.654Z,5.50
2017-11-05T00:59:50.722Z,5.17
2017-11-05T01:02:19.024Z,5.13
2017-11-05T01:04:47.472Z,4.10
2017-11-05T01:07:15.780Z,4.43
2017-11-05T01:09:44.088Z,7.23
2017-11-05T01:12:12.384Z,5.00
2017-11-05T01:14:41.544Z,5.57
2017-11-05T01:17:09.900Z,5.40
2017-11-05T01:19:38.189Z,4.53
2017-11-05T01:22:06.483Z,3.47
2017-11-05T01:24:34.790Z,4.90
2017-11-05T01:27:03.084Z,3.20
2017-11-05T01:29:31.391Z,5.70
2017-11-05T01:31:59.719Z,3.00
2017-11-05T01:34:28.027Z,3.70
2017-11-05T01:36:56.334Z,2.83
2017-11-05T01:39:24.643Z,2.33
2017-11-05T01:41:52.944Z,2.90
2017-11-05T01:44:21.243Z,3.93
2017-11-05T01:46:49.548Z,2.70
2017-11-05T01:49:18.620Z,2.37
2017-11-05T01:51:47.686Z,2.40
2017-11-05T01:54:15.981Z,2.50
2017-11-05T01:56:44.300Z,2.60
2017-11-05T01:59:12.605Z,2.33
2017-11-05T02:01:40.922Z,3.30
2017-11-05T02:04:09.241Z,3.20
2017-11-05T02:06:37.538Z,2.27
2017-11-05T02:09:06.625Z,4.13
2017-11-05T02:11:34.934Z,2.93
2017-11-05T02:14:03.237Z,3.30
2017-11-05T02:16:31.581Z,3.70
2017-11-05T02:19:00.675Z,5.50
2017-11-05T02:21:29.769Z,5.07
2017-11-05T02:23:58.825Z,3.67
2017-11-05T02:26:27.412Z,4.20
2017-11-05T02:28:55.718Z,4.23
2017-11-05T02:31:24.785Z,3.37
2017-11-05T02:33:53.072Z,4.20
2017-11-05T02:36:21.366Z,3.40
2017-11-05T02:38:49.791Z,4.17
2017-11-05T02:41:18.860Z,3.10
2017-11-05T02:43:47.162Z,3.57
2017-11-05T02:46:16.328Z,3.77
2017-11-05T02:48:44.616Z,3.83
2017-11-05T02:51:12.917Z,3.30
2017-11-05T02:53:41.217Z,3.90
2017-11-05T02:56:10.280Z,4.03
2017-11-05T02:58:38.597Z,4.73
2017-11-05T03:01:07.712Z,3.87
2017-11-05T03:03:36.014Z,4.40
2017-11-05T03:06:04.307Z,4.10
2017-11-05T03:08:32.714Z,4.03
2017-11-05T03:11:01.010Z,4.73
2017-11-05T03:13:29.351Z,5.10
2017-11-05T03:15:57.652Z,4.17
2017-11-05T03:18:25.961Z,4.20
2017-11-05T03:20:55.032Z,3.93
2017-11-05T03:23:23.326Z,3.90
2017-11-05T03:25:51.613Z,3.67
2017-11-05T03:28:20.016Z,5.03
2017-11-05T03:30:49.072Z,4.23
2017-11-05T03:33:17.444Z,3.10
2017-11-05T03:35:45.748Z,3.60
2017-11-05T03:38:15.561Z,3.33
2017-11-05T03:40:43.923Z,3.50
2017-11-05T03:43:12.217Z,3.47
2017-11-05T03:45:40.662Z,3.57
2017-11-05T03:48:08.951Z,3.57
2017-11-05T03:50:37.243Z,3.30
2017-11-05T03:53:05.545Z,2.80
2017-11-05T03:55:33.853Z,3.20
2017-11-05T03:58:02.163Z,3.40
2017-11-05T04:00:30.463Z,3.27
2017-11-05T04:02:58.761Z,3.80
2017-11-05T04:05:27.120Z,2.80
2017-11-05T04:07:55.459Z,2.77
2017-11-05T04:10:23.756Z,3.63
2017-11-05T04:12:52.817Z,3.33
2017-11-05T04:15:21.131Z,2.77
2017-11-05T04:17:50.202Z,3.20
2017-11-05T04:20:18.583Z,3.30
2017-11-05T04:22:46.877Z,3.10
2017-11-05T04:25:15.205Z,3.07
2017-11-05T04:27:43.500Z,3.30
2017-11-05T04:30:11.866Z,3.87
2017-11-05T04:32:40.354Z,3.43
2017-11-05T04:35:08.664Z,3.30
2017-11-05T04:37:37.127Z,3.80
2017-11-05T04:40:05.427Z,3.33
2017-11-05T04:42:33.743Z,4.10
2017-11-05T04:45:02.822Z,3.20
2017-11-05T04:47:31.137Z,3.93
2017-11-05T04:50:00.187Z,3.40
2017-11-05T04:52:28.505Z,3.80
2017-11-05T04:54:56.799Z,3.60
2017-11-05T04:57:25.860Z,3.70
2017-11-05T04:59:54.155Z,3.67
2017-11-05T05:02:22.439Z,2.90
2017-11-05T05:04:50.743Z,3.97
2017-11-05T05:07:19.803Z,4.03
2017-11-05T05:09:48.105Z,3.47
2017-11-05T05:12:16.405Z,3.83
2017-11-05T05:14:45.497Z,3.30
2017-11-05T05:17:14.557Z,4.27
2017-11-05T05:19:42.859Z,3.73
2017-11-05T05:22:11.176Z,3.90
2017-11-05T05:24:39.479Z,4.20
2017-11-05T05:27:07.777Z,3.73
2017-11-05T05:29:36.069Z,4.13
2017-11-05T05:32:04.371Z,4.00
2017-11-05T05:34:33.438Z,4.60
2017-11-05T05:37:01.748Z,3.90
2017-11-05T05:39:30.046Z,3.93
2017-11-05T05:41:59.104Z,4.47
2017-11-05T05:44:27.392Z,4.30
2017-11-05T05:46:55.695Z,5.00
2017-11-05T05:49:24.006Z,4.83
2017-11-05T05:51:52.296Z,6.97
2017-11-05T05:54:20.604Z,6.80
2017-11-05T05:56:48.991Z,5.40
2017-11-05T05:59:17.287Z,8.63
2017-11-05T06:01:46.377Z,5.50
2017-11-05T06:04:14.695Z,6.33
2017-11-05T06:06:43.746Z,4.83
2017-11-05T06:09:12.068Z,4.30
2017-11-05T06:11:40.372Z,5.50
2017-11-05T06:14:10.161Z,5.23
2017-11-05T06:16:38.468Z,5.13
2017-11-05T06:19:07.540Z,5.10
2017-11-05T06:21:36.642Z,5.10
2017-11-05T06:24:05.004Z,5.70
2017-11-05T06:26:33.320Z,4.73
2017-11-05T06:29:02.427Z,5.23
2017-11-05T06:31:31.581Z,4.93
2017-11-05T06:33:59.880Z,4.70
2017-11-05T06:36:28.183Z,5.50
2017-11-05T06:38:57.243Z,5.87
2017-11-05T06:41:25.563Z,4.40
2017-11-05T06:43:54.652Z,5.30
2017-11-05T06:46:22.962Z,5.10
2017-11-05T06:48:51.270Z,4.90
2017-11-05T06:51:19.566Z,5.23
2017-11-05T06:53:47.871Z,5.60
2017-11-05T06:56:16.983Z,5.40
2017-11-05T06:58:46.072Z,5.10
2017-11-05T07:01:14.368Z,6.83
2017-11-05T07:03:43.414Z,6.20
2017-11-05T07:06:12.332Z,5.93
2017-11-05T07:08:40.629Z,5.20
2017-11-05T07:11:08.928Z,5.70
2017-11-05T07:13:38.024Z,6.00
2017-11-05T07:16:07.110Z,6.27
2017-11-05T07:18:35.419Z,4.90
2017-11-05T07:21:03.858Z,4.40
2017-11-05T07:23:32.418Z,4.90
2017-11-05T07:26:00.724Z,4.80
2017-11-05T07:28:29.014Z,5.17
2017-11-05T07:30:58.101Z,4.70
2017-11-05T07:33:26.415Z,4.50
2017-11-05T07:35:55.481Z,5.47
2017-11-05T07:38:23.778Z,5.37
2017-11-05T07:40:52.085Z,5.80
2017-11-05T07:43:21.160Z,6.07
2017-11-05T07:45:49.452Z,5.40
2017-11-05T07:48:17.802Z,5.20
2017-11-05T07:50:46.086Z,5.70
2017-11-05T07:53:14.401Z,7.53
2017-11-05T07:55:43.465Z,6.03
2017-11-05T07:58:11.772Z,6.40
2017-11-05T08:00:40.080Z,6.20
2017-11-05T08:03:08.376Z,7.00
2017-11-05T08:05:36.704Z,6.20
2017-11-05T08:08:05.012Z,6.00
2017-11-05T08:10:33.356Z,5.70
2017-11-05T08:13:01.669Z,5.50
2017-11-05T08:15:30.746Z,5.57
2017-11-05T08:17:59.060Z,5.50
2017-11-05T08:20:28.131Z,5.57
2017-11-05T08:22:56.433Z,5.50
2017-11-05T08:25:25.502Z,6.07
2017-11-05T08:27:53.808Z,5.53
2017-11-05T08:30:22.190Z,6.30
2017-11-05T08:32:50.623Z,4.60
2017-11-05T08:35:18.914Z,3.90
2017-11-05T08:37:47.276Z,4.40
2017-11-05T08:40:15.642Z,4.47
2017-11-05T08:42:44.721Z,4.30
2017-11-05T08:45:13.744Z,5.00
2017-11-05T08:47:42.087Z,4.90
2017-11-05T08:50:10.406Z,3.10
2017-11-05T08:52:38.750Z,4.40
2017-11-05T08:55:07.848Z,3.70
2017-11-05T08:57:36.138Z,2.97
2017-11-05T09:00:04.493Z,2.70
2017-11-05T09:02:33.549Z,2.40
2017-11-05T09:05:01.855Z,2.63
2017-11-05T09:07:30.170Z,2.30
2017-11-05T09:09:58.545Z,2.57
2017-11-05T09:12:26.886Z,2.67
2017-11-05T09:14:55.218Z,2.67
2017-11-05T09:17:23.508Z,2.90
2017-11-05T09:19:51.876Z,2.87
2017-11-05T09:22:20.174Z,3.17
2017-11-05T09:24:48.479Z,3.77
2017-11-05T09:27:17.552Z,4.23
2017-11-05T09:29:45.902Z,4.17
2017-11-05T09:32:14.231Z,4.40
2017-11-05T09:34:43.319Z,4.70
2017-11-05T09:37:11.616Z,4.30
2017-11-05T09:39:40.682Z,4.80
2017-11-05T09:42:08.978Z,3.17
2017-11-05T09:44:37.366Z,3.50
2017-11-05T09:47:05.818Z,2.80
2017-11-05T09:49:34.148Z,2.67
2017-11-05T09:52:03.200Z,2.00
2017-11-05T09:54:31.491Z,2.17
2017-11-05T09:56:59.818Z,2.20
2017-11-05T09:59:28.910Z,2.33
2017-11-05T10:01:57.993Z,2.90
2017-11-05T10:04:26.291Z,2.80
2017-11-05T10:06:56.167Z,2.43
2017-11-05T10:09:24.477Z,2.60
2017-11-05T10:11:52.795Z,2.90
2017-11-05T10:14:21.126Z,3.47
2017-11-05T10:16:49.454Z,2.60
2017-11-05T10:19:17.749Z,2.70
2017-11-05T10:21:46.063Z,2.87
2017-11-05T10:24:14.366Z,2.27
2017-11-05T10:26:43.532Z,2.40
2017-11-05T10:29:11.920Z,2.40
2017-11-05T10:31:40.221Z,2.23
2017-11-05T10:34:08.527Z,2.47
2017-11-05T10:36:37.611Z,2.60
2017-11-05T10:39:05.930Z,2.70
2017-11-05T10:41:34.223Z,2.50
2017-11-05T10:44:02.527Z,2.93
2017-11-05T10:46:30.817Z,2.70
2017-11-05T10:48:59.258Z,3.07
2017-11-05T10:51:27.558Z,2.50
2017-11-05T10:53:55.857Z,3.60
2017-11-05T10:56:24.167Z,2.70
2017-11-05T10:58:52.473Z,3.70
2017-11-05T11:01:20.810Z,3.37
2017-11-05T11:03:49.156Z,3.80
2017-11-05T11:06:17.475Z,4.03
2017-11-05T11:08:45.776Z,3.77
2017-11-05T11:11:14.111Z,3.07
2017-11-05T11:13:42.415Z,2.90
2017-11-05T11:16:10.704Z,2.73
2017-11-05T11:18:39.024Z,2.60
2017-11-05T11:21:07.325Z,3.00
2017-11-05T11:23:35.617Z,2.57
2017-11-05T11:26:03.942Z,3.27
2017-11-05T11:28:32.228Z,2.60
2017-11-05T11:31:01.295Z,2.43
2017-11-05T11:33:29.607Z,2.43
2017-11-05T11:35:58.691Z,2.70
2017-11-05T11:38:26.989Z,3.10
2017-11-05T11:40:56.038Z,3.00
2017-11-05T11:43:24.380Z,2.50
2017-11-05T11:45:52.714Z,2.23
2017-11-05T11:48:21.021Z,2.30
2017-11-05T11:50:49.305Z,1.27
2017-11-05T11:53:17.601Z,1.40
2017-11-05T11:55:46.675Z,1.30
2017-11-05T11:58:16.548Z,1.57
2017-11-05T12:00:44.835Z,1.50
2017-11-05T12:03:13.115Z,1.47
2017-11-05T12:05:41.416Z,1.73
2017-11-05T12:08:09.699Z,1.40
2017-11-05T12:10:38.009Z,1.47
2017-11-05T12:13:06.365Z,1.20
2017-11-05T12:15:34.649Z,1.87
2017-11-05T12:18:03.020Z,1.50
2017-11-05T12:20:31.489Z,1.50
2017-11-05T12:22:59.777Z,1.60
2017-11-05T12:25:28.118Z,1.40
2017-11-05T12:27:57.369Z,1.50
2017-11-05T12:30:25.716Z,1.70
2017-11-05T12:32:55.521Z,1.70
2017-11-05T12:35:24.602Z,1.70
2017-11-05T12:37:52.954Z,1.60
2017-11-05T12:40:21.241Z,2.00
2017-11-05T12:42:49.553Z,1.47
2017-11-05T12:45:17.858Z,1.90
2017-11-05T12:47:46.225Z,2.00
2017-11-05T12:50:15.299Z,2.27
2017-11-05T12:52:43.616Z,2.40
2017-11-05T12:55:12.853Z,1.73
2017-11-05T12:57:41.152Z,2.50
2017-11-05T13:00:09.479Z,2.43
2017-11-05T13:02:38.823Z,2.33
2017-11-05T13:05:07.185Z,3.27
2017-11-05T13:07:35.477Z,2.33
2017-11-05T13:10:03.781Z,2.57
2017-11-05T13:12:32.081Z,3.10
2017-11-05T13:15:00.409Z,3.00
2017-11-05T13:17:28.705Z,3.03
2017-11-05T13:19:57.073Z,1.57
2017-11-05T13:22:25.374Z,1.50
2017-11-05T13:24:53.731Z,1.80
2017-11-05T13:27:22.097Z,1.77
2017-11-05T13:29:51.166Z,2.50
2017-11-05T13:32:19.527Z,2.10
2017-11-05T13:34:47.837Z,2.17
2017-11-05T13:37:16.154Z,2.87
2017-11-05T13:39:44.477Z,2.57
2017-11-05T13:42:12.763Z,2.60
2017-11-05T13:44:41.089Z,2.80
2017-11-05T13:47:10.158Z,2.43
2017-11-05T13:49:38.462Z,2.80
2017-11-05T13:52:07.518Z,3.13
2017-11-05T13:54:35.950Z,2.80
2017-11-05T13:57:05.007Z,4.30
2017-11-05T13:59:33.330Z,6.90
2017-11-05T14:02:02.391Z,5.63
2017-11-05T14:04:30.676Z,4.47
2017-11-05T14:06:58.984Z,4.80
2017-11-05T14:09:28.132Z,3.33
2017-11-05T14:11:56.411Z,4.13
2017-11-05T14:14:24.724Z,4.70
2017-11-05T14:16:53.780Z,4.87
2017-11-05T14:19:22.057Z,3.40
2017-11-05T14:21:50.525Z,2.70
2017-11-05T14:24:18.824Z,2.80
2017-11-05T14:26:47.118Z,3.10
2017-11-05T14:29:15.401Z,3.80
2017-11-05T14:31:43.712Z,3.33
2017-11-05T14:34:12.004Z,3.27
2017-11-05T14:36:40.290Z,4.10
2017-11-05T14:39:08.624Z,4.10
2017-11-05T14:41:36.904Z,4.13
2017-11-05T14:44:05.188Z,3.80
2017-11-05T14:46:33.740Z,3.10
2017-11-05T14:49:02.810Z,2.77
2017-11-05T14:51:31.093Z,3.27
2017-11-05T14:53:59.416Z,3.20
2017-11-05T14:56:27.831Z,2.73
2017-11-05T14:58:56.128Z,4.10
2017-11-05T15:01:24.423Z,5.40
2017-11-05T15:03:52.719Z,5.10
2017-11-05T15:06:21.802Z,4.57
2017-11-05T15:08:50.155Z,3.67
2017-11-05T15:11:18.442Z,3.40
2017-11-05T15:13:46.744Z,3.57
2017-11-05T15:16:15.829Z,3.17
2017-11-05T15:18:44.117Z,2.80
2017-11-05T15:21:12.422Z,2.10
2017-11-05T15:23:41.470Z,3.17
2017-11-05T15:26:09.770Z,2.60
2017-11-05T15:28:38.323Z,2.30
2017-11-05T15:31:06.631Z,2.90
2017-11-05T15:33:34.910Z,2.37
2017-11-05T15:36:03.218Z,3.13
2017-11-05T15:38:31.503Z,2.63
2017-11-05T15:40:59.939Z,3.40
2017-11-05T15:43:28.238Z,2.53
2017-11-05T15:45:57.476Z,2.57
2017-11-05T15:48:26.557Z,2.70
2017-11-05T15:50:54.874Z,2.17
2017-11-05T15:53:23.941Z,2.90
2017-11-05T15:55:53.755Z,2.50
2017-11-05T15:58:22.072Z,2.60
2017-11-05T16:00:50.375Z,2.87
2017-11-05T16:03:18.729Z,3.07
2017-11-05T16:05:47.036Z,2.57
2017-11-05T16:08:15.346Z,2.70
2017-11-05T16:10:43.666Z,2.70
2017-11-05T16:13:12.726Z,3.40
2017-11-05T16:15:41.025Z,2.90
2017-11-05T16:18:10.829Z,3.20
2017-11-05T16:20:39.150Z,3.23
2017-11-05T16:23:08.228Z,3.37
2017-11-05T16:25:36.544Z,3.97
2017-11-05T16:28:04.841Z,3.53
2017-11-05T16:30:33.130Z,4.00
2017-11-05T16:33:01.516Z,4.20
2017-11-05T16:35:30.073Z,4.17
2017-11-05T16:37:58.426Z,5.90
2017-11-05T16:40:26.726Z,5.93
2017-11-05T16:42:55.796Z,5.93
2017-11-05T16:45:24.240Z,5.83
2017-11-05T16:47:52.632Z,6.43
2017-11-05T16:50:20.918Z,6.20
2017-11-05T16:52:49.224Z,6.13
2017-11-05T16:55:18.302Z,6.00
2017-11-05T16:57:46.602Z,5.40
2017-11-05T17:00:16.395Z,6.40
2017-11-05T17:02:44.708Z,5.60
2017-11-05T17:05:13.000Z,6.27
2017-11-05T17:07:42.064Z,6.47
2017-11-05T17:10:10.378Z,7.00
2017-11-05T17:12:38.759Z,6.80
2017-11-05T17:15:07.039Z,5.97
2017-11-05T17:17:35.344Z,7.97
2017-11-05T17:20:04.417Z,6.20
2017-11-05T17:22:32.720Z,8.60
2017-11-05T17:25:01.028Z,7.30
2017-11-05T17:27:29.340Z,7.47
2017-11-05T17:29:57.632Z,8.87
2017-11-05T17:32:27.451Z,11.37
2017-11-05T17:34:57.254Z,11.00
2017-11-05T17:37:25.633Z,9.83
2017-11-05T17:39:53.930Z,9.90
2017-11-05T17:42:22.222Z,9.50
2017-11-05T17:44:50.530Z,10.33
2017-11-05T17:47:18.828Z,10.97
2017-11-05T17:49:47.165Z,10.50
2017-11-05T17:52:15.468Z,10.33
2017-11-05T17:54:43.794Z,9.20
2017-11-05T17:57:14.563Z,9.60
2017-11-05T17:59:42.924Z,9.10
2017-11-05T18:02:11.253Z,9.33
2017-11-05T18:04:40.383Z,9.53
2017-11-05T18:07:08.675Z,9.70
2017-11-05T18:09:36.994Z,9.53
2017-11-05T18:12:05.312Z,10.17
2017-11-05T18:14:33.612Z,9.10
2017-11-05T18:17:01.961Z,8.17
2017-11-05T18:19:31.020Z,8.47
2017-11-05T18:21:59.562Z,7.93
2017-11-05T18:24:27.857Z,8.77
2017-11-05T18:26:56.152Z,7.97
2017-11-05T18:29:24.452Z,7.40
2017-11-05T18:31:52.750Z,6.93
2017-11-05T18:34:21.093Z,7.00
2017-11-05T18:36:49.425Z,6.73
2017-11-05T18:39:18.462Z,6.43
2017-11-05T18:41:46.807Z,6.50
2017-11-05T18:44:15.881Z,13.40
2017-11-05T18:46:44.161Z,13.67
2017-11-05T18:49:13.214Z,7.23
2017-11-05T18:51:41.520Z,15.60
2017-11-05T18:54:09.804Z,8.10
2017-11-05T18:56:38.115Z,13.20
2017-11-05T18:59:06.457Z,26.63
2017-11-05T19:01:34.752Z,17.57
2017-11-05T19:04:03.069Z,6.47
2017-11-05T19:06:32.123Z,19.73
2017-11-05T19:09:00.412Z,5.07
2017-11-05T19:11:28.736Z,6.80
2017-11-05T19:13:57.799Z,3.50
2017-11-05T19:16:26.173Z,2.57
2017-11-05T19:18:54.470Z,2.37
2017-11-05T19:21:22.761Z,1.67
2017-11-05T19:23:51.051Z,2.70
2017-11-05T19:26:20.113Z,1.87
2017-11-05T19:28:48.436Z,2.77
2017-11-05T19:31:17.490Z,2.77
2017-11-05T19:33:45.798Z,3.43
2017-11-05T19:36:15.615Z,3.60
2017-11-05T19:38:45.413Z,4.20
2017-11-05T19:41:13.709Z,4.10
2017-11-05T19:43:42.075Z,4.23
2017-11-05T19:46:10.389Z,4.83
2017-11-05T19:48:38.664Z,5.30
2017-11-05T19:51:06.960Z,5.20
2017-11-05T19:53:36.032Z,4.87
2017-11-05T19:56:05.216Z,4.90
2017-11-05T19:58:33.509Z,6.37
2017-11-05T20:01:03.311Z,8.27
2017-11-05T20:03:31.624Z,5.97
2017-11-05T20:05:59.905Z,7.00
2017-11-05T20:08:28.199Z,5.00
2017-11-05T20:10:57.256Z,3.50
2017-11-05T20:13:25.551Z,4.13
2017-11-05T20:15:53.836Z,3.83
2017-11-05T20:18:22.202Z,3.20
2017-11-05T20:20:50.489Z,4.10
2017-11-05T20:23:18.797Z,5.30
2017-11-05T20:25:47.077Z,6.90
2017-11-05T20:28:15.364Z,3.50
2017-11-05T20:30:44.443Z,3.30
2017-11-05T20:33:13.503Z,3.60
2017-11-05T20:35:41.809Z,3.13
2017-11-05T20:38:10.133Z,3.70
2017-11-05T20:40:39.341Z,3.70
2017-11-05T20:43:08.416Z,3.90
2017-11-05T20:45:36.713Z,3.00
2017-11-05T20:48:05.795Z,4.13
2017-11-05T20:50:34.114Z,4.17
2017-11-05T20:53:02.423Z,3.20
2017-11-05T20:55:30.783Z,3.10
2017-11-05T20:57:59.079Z,2.90
2017-11-05T21:00:27.513Z,3.23
2017-11-05T21:02:55.809Z,2.83
2017-11-05T21:05:24.928Z,3.00
2017-11-05T21:07:53.220Z,3.10
2017-11-05T21:10:21.537Z,3.97
2017-11-05T21:12:51.343Z,3.50
2017-11-05T21:15:19.634Z,3.23
2017-11-05T21:17:47.947Z,3.50
2017-11-05T21:20:17.008Z,3.13
2017-11-05T21:22:45.321Z,3.13
2017-11-05T21:25:14.406Z,3.03
2017-11-05T21:27:43.447Z,3.70
2017-11-05T21:30:11.730Z,3.03
2017-11-05T21:32:40.051Z,2.90
2017-11-05T21:35:08.349Z,3.40
2017-11-05T21:37:38.235Z,3.77
2017-11-05T21:40:06.522Z,3.97
2017-11-05T21:42:34.833Z,3.33
2017-11-05T21:45:03.905Z,2.83
2017-11-05T21:47:32.219Z,6.90
2017-11-05T21:50:00.518Z,6.67
2017-11-05T21:52:29.667Z,4.43
2017-11-05T21:54:57.958Z,2.87
2017-11-05T21:57:26.255Z,8.87
2017-11-05T21:59:55.391Z,2.83
2017-11-05T22:02:23.677Z,2.20
2017-11-05T22:04:52.066Z,2.87
2017-11-05T22:07:20.382Z,4.70
2017-11-05T22:09:48.747Z,2.07
2017-11-05T22:12:17.041Z,2.57
2017-11-05T22:14:45.342Z,2.20
2017-11-05T22:17:13.637Z,2.20
2017-11-05T22:19:42.689Z,2.47
2017-11-05T22:22:10.998Z,2.23
2017-11-05T22:24:40.063Z,2.97
2017-11-05T22:27:08.361Z,2.93
2017-11-05T22:29:36.646Z,2.70
2017-11-05T22:32:04.939Z,2.13
2017-11-05T22:34:33.300Z,2.73
2017-11-05T22:37:01.600Z,2.87
2017-11-05T22:39:29.966Z,1.93
2017-11-05T22:41:58.267Z,1.33
2017-11-05T22:44:26.813Z,1.70
2017-11-05T22:46:55.099Z,2.00
2017-11-05T22:49:23.390Z,1.20
2017-11-05T22:51:51.701Z,0.93
2017-11-05T22:54:19.996Z,1.20
2017-11-05T22:56:48.300Z,1.53
2017-11-05T22:59:17.370Z,1.57
2017-11-05T23:01:47.181Z,1.40
2017-11-05T23:04:17.080Z,1.90
2017-11-05T23:06:45.385Z,1.40
2017-11-05T23:09:14.438Z,1.13
2017-11-05T23:11:42.736Z,1.90
2017-11-05T23:14:11.028Z,2.20
2017-11-05T23:16:39.316Z,2.23
2017-11-05T23:19:07.605Z,2.10
2017-11-05T23:21:36.663Z,1.70
2017-11-05T23:24:04.970Z,1.97
2017-11-05T23:26:33.280Z,1.20
2017-11-05T23:29:01.616Z,1.00
2017-11-05T23:31:29.920Z,1.23
2017-11-05T23:33:58.221Z,1.43
2017-11-05T23:36:26.516Z,1.00
2017-11-05T23:38:55.600Z,0.90
2017-11-05T23:41:23.878Z,0.97
2017-11-05T23:43:52.165Z,1.60
2017-11-05T23:46:20.508Z,0.80
2017-11-05T23:48:48.866Z,0.67
2017-11-05T23:51:17.247Z,1.00
2017-11-05T23:53:45.548Z,0.87
2017-11-05T23:56:13.852Z,1.13
2017-11-05T23:58:42.153Z,1.13
